createdAt,value
2022-09-28T00:01:10.455Z,23.52
2022-09-28T00:03:37.500Z,21.38
2022-09-28T00:06:07.787Z,21.75
2022-09-28T00:08:36.150Z,23.05
2022-09-28T00:11:05.516Z,21.92
2022-09-28T00:13:33.577Z,22.60
2022-09-28T00:16:05.070Z,24.63
2022-09-28T00:18:32.400Z,23.30
2022-09-28T00:21:05.842Z,22.40
2022-09-28T00:23:34.891Z,22.30
2022-09-28T00:26:06.086Z,22.75
2022-09-28T00:28:33.764Z,24.92
2022-09-28T00:31:01.325Z,25.05
2022-09-28T00:33:28.630Z,29.70
2022-09-28T00:35:59.155Z,22.98
2022-09-28T00:38:28.515Z,25.15
2022-09-28T00:40:56.176Z,21.02
2022-09-28T00:43:24.325Z,25.50
2022-09-28T00:46:05.899Z,21.38
2022-09-28T00:48:36.418Z,21.27
2022-09-28T00:51:09.643Z,22.70
2022-09-28T00:53:40.636Z,28.50
2022-09-28T00:56:14.709Z,24.05
2022-09-28T00:58:48.586Z,21.90
2022-09-28T01:01:16.694Z,23.08
2022-09-28T01:03:48.860Z,26.92
2022-09-28T01:06:21.081Z,23.92
2022-09-28T01:08:51.979Z,21.02
2022-09-28T01:11:21.961Z,21.02
2022-09-28T01:13:53.399Z,20.50
2022-09-28T01:16:57.138Z,20.55
2022-09-28T01:20:00.139Z,20.30
2022-09-28T01:22:36.220Z,21.67
2022-09-28T01:25:22.380Z,21.08
2022-09-28T01:28:16.340Z,25.27
2022-09-28T01:30:58.105Z,20.35
2022-09-28T01:33:35.827Z,21.27
2022-09-28T01:36:09.955Z,19.33
2022-09-28T01:38:48.700Z,19.88
2022-09-28T01:41:17.965Z,22.58
2022-09-28T01:43:55.265Z,21.38
2022-09-28T01:46:27.566Z,21.50
2022-09-28T01:48:59.423Z,19.30
2022-09-28T01:51:36.468Z,20.05
2022-09-28T01:54:12.923Z,22.23
2022-09-28T01:56:51.309Z,20.27
2022-09-28T01:59:29.246Z,19.90
2022-09-28T02:02:10.877Z,22.30
2022-09-28T02:05:03.437Z,20.40
2022-09-28T02:07:56.343Z,26.65
2022-09-28T02:10:30.397Z,21.00
2022-09-28T02:13:09.818Z,22.50
2022-09-28T02:16:01.232Z,19.60
2022-09-28T02:18:28.936Z,20.52
2022-09-28T02:21:11.817Z,22.02
2022-09-28T02:23:43.552Z,20.15
2022-09-28T02:26:17.505Z,20.05
2022-09-28T02:28:44.484Z,20.83
2022-09-28T02:31:11.402Z,21.80
2022-09-28T02:33:42.375Z,19.42
2022-09-28T02:36:09.907Z,20.08
2022-09-28T02:38:39.260Z,20.88
2022-09-28T02:41:22.194Z,19.38
2022-09-28T02:44:05.004Z,21.50
2022-09-28T02:46:42.934Z,20.27
2022-09-28T02:49:51.738Z,22.48
2022-09-28T02:52:45.012Z,21.48
2022-09-28T02:55:21.050Z,19.73
2022-09-28T02:58:00.187Z,19.85
2022-09-28T03:00:28.035Z,18.70
2022-09-28T03:03:03.807Z,20.40
2022-09-28T03:06:07.874Z,21.83
2022-09-28T03:09:01.061Z,22.15
2022-09-28T03:12:05.113Z,21.60
2022-09-28T03:14:32.342Z,21.17
2022-09-28T03:17:00.333Z,23.55
2022-09-28T03:19:31.865Z,20.85
2022-09-28T03:22:00.652Z,21.83
2022-09-28T03:24:27.932Z,28.38
2022-09-28T03:26:55.189Z,26.27
2022-09-28T03:29:23.055Z,23.80
2022-09-28T03:31:57.441Z,22.30
2022-09-28T03:34:24.451Z,23.90
2022-09-28T03:36:51.902Z,23.58
2022-09-28T03:39:19.261Z,36.47
2022-09-28T03:41:46.431Z,22.70
2022-09-28T03:44:14.031Z,23.20
2022-09-28T03:46:41.350Z,26.35
2022-09-28T03:49:10.068Z,27.38
2022-09-28T03:51:37.031Z,23.60
2022-09-28T03:54:04.654Z,24.75
2022-09-28T03:56:31.681Z,24.70
2022-09-28T03:58:58.700Z,32.03
2022-09-28T04:01:27.449Z,29.02
2022-09-28T04:03:58.139Z,22.70
2022-09-28T04:06:26.631Z,24.83
2022-09-28T04:08:53.926Z,22.50
2022-09-28T04:11:21.308Z,25.00
2022-09-28T04:13:52.452Z,24.50
2022-09-28T04:16:19.711Z,23.98
2022-09-28T04:19:09.677Z,27.25
2022-09-28T04:21:57.752Z,21.25
2022-09-28T04:24:24.831Z,26.10
2022-09-28T04:26:51.975Z,24.60
2022-09-28T04:29:19.525Z,22.08
2022-09-28T04:31:56.008Z,24.33
2022-09-28T04:34:37.992Z,21.80
2022-09-28T04:37:07.732Z,21.15
2022-09-28T04:39:34.819Z,24.77
2022-09-28T04:42:02.169Z,21.48
2022-09-28T04:44:29.376Z,21.95
2022-09-28T04:47:05.484Z,26.63
2022-09-28T04:49:33.773Z,23.38
2022-09-28T04:52:18.568Z,28.05
2022-09-28T04:54:49.043Z,28.38
2022-09-28T04:57:16.772Z,22.92
2022-09-28T04:59:43.880Z,22.73
2022-09-28T05:02:14.164Z,20.92
2022-09-28T05:05:04.231Z,20.73
2022-09-28T05:07:46.281Z,24.55
2022-09-28T05:10:13.502Z,21.48
2022-09-28T05:12:41.139Z,27.75
2022-09-28T05:15:11.364Z,21.20
2022-09-28T05:17:42.431Z,21.33
2022-09-28T05:20:20.059Z,21.25
2022-09-28T05:22:48.473Z,18.90
2022-09-28T05:25:15.938Z,19.15
2022-09-28T05:27:56.800Z,19.33
2022-09-28T05:30:47.012Z,19.60
2022-09-28T05:33:30.105Z,19.63
2022-09-28T05:36:15.497Z,18.50
2022-09-28T05:38:43.279Z,18.23
2022-09-28T05:41:10.202Z,17.98
2022-09-28T05:43:38.498Z,18.30
2022-09-28T05:46:06.749Z,18.77
2022-09-28T05:48:37.274Z,17.48
2022-09-28T05:51:04.649Z,18.20
2022-09-28T05:53:31.676Z,18.10
2022-09-28T05:55:59.723Z,18.52
2022-09-28T05:58:28.220Z,21.33
2022-09-28T06:00:59.381Z,20.50
2022-09-28T06:03:28.752Z,19.40
2022-09-28T06:05:55.974Z,17.77
2022-09-28T06:08:25.295Z,16.75
2022-09-28T06:11:01.546Z,14.70
2022-09-28T06:13:29.477Z,13.93
2022-09-28T06:15:56.557Z,14.98
2022-09-28T06:18:23.759Z,15.10
2022-09-28T06:21:10.968Z,14.25
2022-09-28T06:23:48.195Z,14.57
2022-09-28T06:26:17.131Z,17.60
2022-09-28T06:28:45.052Z,14.43
2022-09-28T06:31:12.254Z,14.82
2022-09-28T06:33:48.401Z,16.75
2022-09-28T06:36:15.552Z,15.75
2022-09-28T06:38:42.696Z,16.40
2022-09-28T06:41:11.723Z,14.40
2022-09-28T06:43:40.393Z,14.88
2022-09-28T06:46:14.352Z,14.88
2022-09-28T06:48:41.820Z,15.63
2022-09-28T06:51:12.635Z,14.27
2022-09-28T06:53:49.318Z,15.18
2022-09-28T06:56:33.228Z,14.98
2022-09-28T06:59:00.411Z,15.90
2022-09-28T07:01:28.721Z,15.77
2022-09-28T07:06:50.660Z,14.05
2022-09-28T07:09:55.892Z,14.63
2022-09-28T07:12:44.279Z,13.93
2022-09-28T07:15:38.241Z,13.25
2022-09-28T07:18:11.445Z,13.85
2022-09-28T07:20:50.287Z,14.98
2022-09-28T07:23:20.009Z,13.68
2022-09-28T07:26:10.024Z,12.95
2022-09-28T07:28:57.492Z,13.32
2022-09-28T07:31:36.564Z,11.32
2022-09-28T07:34:18.625Z,15.13
2022-09-28T07:37:02.464Z,14.37
2022-09-28T07:39:29.854Z,13.38
2022-09-28T07:42:02.507Z,13.73
2022-09-28T07:44:30.677Z,14.27
2022-09-28T07:46:58.608Z,14.55
2022-09-28T07:49:51.334Z,12.35
2022-09-28T07:52:38.290Z,13.73
2022-09-28T07:55:28.204Z,11.45
2022-09-28T07:58:15.324Z,12.13
2022-09-28T08:01:10.675Z,10.27
2022-09-28T08:03:39.772Z,11.75
2022-09-28T08:06:11.183Z,11.13
2022-09-28T08:08:39.281Z,13.48
2022-09-28T08:11:07.099Z,13.30
2022-09-28T08:14:03.123Z,12.00
2022-09-28T08:16:49.642Z,12.32
2022-09-28T08:20:03.623Z,12.05
2022-09-28T08:22:32.400Z,13.57
2022-09-28T08:25:00.690Z,14.05
2022-09-28T08:27:29.046Z,12.18
2022-09-28T08:29:55.952Z,11.68
2022-09-28T08:32:50.248Z,12.23
2022-09-28T08:35:35.549Z,12.13
2022-09-28T08:38:14.245Z,14.07
2022-09-28T08:41:22.088Z,12.40
2022-09-28T08:44:17.236Z,12.95
2022-09-28T08:47:33.654Z,13.38
2022-09-28T08:50:30.870Z,13.23
2022-09-28T08:53:33.199Z,13.02
2022-09-28T08:56:55.009Z,12.13
2022-09-28T08:59:37.870Z,17.83
2022-09-28T09:02:18.328Z,14.10
2022-09-28T09:04:45.672Z,12.02
2022-09-28T09:08:08.514Z,11.70
2022-09-28T09:10:59.885Z,11.85
2022-09-28T09:14:00.530Z,11.77
2022-09-28T09:17:00.314Z,12.00
2022-09-28T09:19:55.485Z,11.77
2022-09-28T09:23:01.031Z,10.98
2022-09-28T09:26:23.835Z,11.82
2022-09-28T09:29:22.151Z,11.25
2022-09-28T09:32:12.904Z,11.45
2022-09-28T09:35:01.448Z,11.27
2022-09-28T09:38:00.201Z,10.75
2022-09-28T09:40:59.540Z,12.18
2022-09-28T09:43:59.972Z,12.75
2022-09-28T09:47:08.239Z,13.18
2022-09-28T09:49:58.107Z,21.45
2022-09-28T09:53:18.758Z,12.13
2022-09-28T09:55:48.392Z,11.32
2022-09-28T09:58:32.979Z,11.45
2022-09-28T10:01:23.424Z,11.57
2022-09-28T10:04:26.455Z,10.68
2022-09-28T10:07:04.593Z,11.85
2022-09-28T10:09:39.648Z,10.55
2022-09-28T10:15:28.281Z,11.23
2022-09-28T10:21:03.458Z,13.25
2022-09-28T10:23:58.796Z,12.02
2022-09-28T10:28:29.416Z,11.65
2022-09-28T10:30:04.924Z,13.23
2022-09-28T10:32:43.947Z,15.55
2022-09-28T10:35:44.111Z,19.67
2022-09-28T10:38:13.305Z,16.27
2022-09-28T10:41:01.536Z,15.65
2022-09-28T10:44:06.383Z,12.80
2022-09-28T10:46:43.020Z,11.75
2022-09-28T10:49:18.774Z,11.73
2022-09-28T10:51:58.957Z,12.68
2022-09-28T10:54:32.088Z,10.63
2022-09-28T10:57:00.993Z,10.85
2022-09-28T10:59:49.139Z,11.65
2022-09-28T11:02:21.933Z,11.52
2022-09-28T11:05:01.470Z,13.23
2022-09-28T11:07:44.575Z,11.77
2022-09-28T11:10:39.601Z,11.77
2022-09-28T11:13:14.446Z,11.65
2022-09-28T11:15:46.466Z,13.00
2022-09-28T11:18:32.508Z,11.57
2022-09-28T11:21:17.189Z,12.65
2022-09-28T11:24:06.017Z,13.07
2022-09-28T11:27:02.654Z,12.18
2022-09-28T11:29:43.656Z,12.27
2022-09-28T11:32:21.902Z,12.98
2022-09-28T11:35:25.406Z,11.48
2022-09-28T11:38:10.003Z,12.63
2022-09-28T11:41:33.141Z,12.23
2022-09-28T11:44:08.377Z,13.70
2022-09-28T11:46:50.478Z,13.80
2022-09-28T11:49:31.353Z,13.52
2022-09-28T11:52:05.784Z,13.27
2022-09-28T11:54:48.301Z,14.32
2022-09-28T11:57:22.500Z,13.73
2022-09-28T12:00:01.912Z,13.73
2022-09-28T12:02:48.789Z,16.77
2022-09-28T12:05:25.144Z,14.27
2022-09-28T12:08:22.299Z,15.43
2022-09-28T12:11:00.811Z,15.15
2022-09-28T12:14:06.922Z,14.35
2022-09-28T12:17:04.824Z,15.20
2022-09-28T12:19:42.665Z,14.73
2022-09-28T12:22:21.115Z,15.43
2022-09-28T12:24:51.546Z,12.40
2022-09-28T12:27:32.093Z,12.48
2022-09-28T12:30:11.953Z,12.73
2022-09-28T12:32:44.868Z,12.98
2022-09-28T12:35:14.938Z,12.65
2022-09-28T12:37:51.460Z,12.25
2022-09-28T12:40:36.038Z,15.85
2022-09-28T12:43:18.881Z,16.67
2022-09-28T12:46:12.576Z,13.27
2022-09-28T12:49:21.706Z,17.75
2022-09-28T12:51:55.749Z,14.55
2022-09-28T12:54:37.972Z,14.02
2022-09-28T12:57:32.146Z,13.95
2022-09-28T13:00:13.649Z,14.75
2022-09-28T13:02:55.864Z,18.00
2022-09-28T13:06:10.842Z,18.20
2022-09-28T13:09:07.400Z,14.35
2022-09-28T13:11:47.075Z,14.48
2022-09-28T13:14:41.669Z,17.08
2022-09-28T13:17:12.353Z,14.73
2022-09-28T13:19:42.375Z,16.67
2022-09-28T13:22:19.205Z,15.18
2022-09-28T13:24:53.587Z,14.77
2022-09-28T13:27:30.667Z,15.88
2022-09-28T13:30:01.237Z,17.77
2022-09-28T13:32:31.635Z,15.18
2022-09-28T13:34:59.544Z,17.65
2022-09-28T13:37:26.642Z,15.32
2022-09-28T13:39:56.610Z,15.27
2022-09-28T13:42:35.542Z,14.73
2022-09-28T13:45:34.505Z,15.25
2022-09-28T13:48:05.398Z,10.75
2022-09-28T13:51:01.112Z,11.10
2022-09-28T13:54:22.084Z,11.02
2022-09-28T13:56:57.583Z,10.75
2022-09-28T13:59:30.275Z,10.13
2022-09-28T14:02:33.949Z,11.30
2022-09-28T14:05:05.306Z,10.82
2022-09-28T14:07:35.154Z,11.30
2022-09-28T14:10:51.994Z,11.93
2022-09-28T14:16:36.993Z,12.65
2022-09-28T14:19:15.771Z,12.32
2022-09-28T14:21:51.562Z,12.82
2022-09-28T14:24:27.517Z,12.80
2022-09-28T14:27:03.163Z,11.93
2022-09-28T14:29:33.555Z,12.65
2022-09-28T14:32:09.097Z,14.43
2022-09-28T14:34:46.750Z,12.57
2022-09-28T14:37:54.331Z,13.82
2022-09-28T14:40:43.774Z,13.45
2022-09-28T14:43:45.132Z,13.32
2022-09-28T14:46:14.801Z,14.13
2022-09-28T14:48:48.101Z,13.95
2022-09-28T14:51:27.066Z,13.75
2022-09-28T14:54:01.750Z,15.35
2022-09-28T14:56:33.506Z,15.98
2022-09-28T14:59:01.198Z,14.73
2022-09-28T15:01:28.525Z,14.48
2022-09-28T15:04:04.718Z,13.68
2022-09-28T15:06:49.933Z,14.55
2022-09-28T15:09:37.259Z,16.25
2022-09-28T15:12:21.244Z,16.17
2022-09-28T15:14:55.202Z,16.52
2022-09-28T15:17:39.190Z,16.33
2022-09-28T15:20:35.504Z,16.73
2022-09-28T15:23:45.899Z,15.90
2022-09-28T15:26:30.059Z,16.17
2022-09-28T15:29:18.404Z,17.60
2022-09-28T15:31:45.846Z,18.67
2022-09-28T15:34:53.004Z,18.90
2022-09-28T15:37:24.379Z,19.17
2022-09-28T15:39:55.772Z,19.42
2022-09-28T15:42:23.545Z,18.58
2022-09-28T15:45:23.854Z,19.90
2022-09-28T15:47:58.558Z,21.33
2022-09-28T15:50:29.196Z,20.00
2022-09-28T15:53:02.636Z,20.00
2022-09-28T15:55:39.670Z,22.50
2022-09-28T15:58:12.738Z,22.20
2022-09-28T16:00:40.343Z,24.38
2022-09-28T16:03:07.472Z,24.33
2022-09-28T16:05:53.124Z,25.88
2022-09-28T16:08:27.423Z,24.05
2022-09-28T16:10:57.039Z,25.20
2022-09-28T16:13:24.425Z,26.45
2022-09-28T16:15:59.734Z,28.13
2022-09-28T16:18:31.279Z,27.35
2022-09-28T16:21:28.007Z,28.73
2022-09-28T16:23:58.617Z,26.85
2022-09-28T16:26:39.091Z,30.30
2022-09-28T16:29:26.396Z,29.23
2022-09-28T16:31:59.499Z,28.75
2022-09-28T16:34:27.488Z,28.20
2022-09-28T16:36:54.815Z,28.05
2022-09-28T16:39:22.028Z,28.80
2022-09-28T16:41:56.386Z,29.50
2022-09-28T16:44:26.119Z,29.88
2022-09-28T16:46:55.946Z,32.63
2022-09-28T16:49:25.689Z,30.27
2022-09-28T16:51:53.256Z,30.38
2022-09-28T16:54:41.631Z,28.83
2022-09-28T16:57:13.024Z,31.27
2022-09-28T16:59:40.104Z,28.65
2022-09-28T17:02:46.330Z,28.90
2022-09-28T17:05:16.029Z,29.17
2022-09-28T17:07:45.377Z,39.10
2022-09-28T17:10:26.610Z,29.35
2022-09-28T17:12:54.051Z,29.63
2022-09-28T17:15:21.112Z,22.42
2022-09-28T17:17:49.333Z,21.80
2022-09-28T17:20:21.482Z,18.10
2022-09-28T17:22:51.471Z,7.72
2022-09-28T17:25:19.907Z,7.57
2022-09-28T17:27:48.083Z,6.25
2022-09-28T17:30:16.264Z,5.15
2022-09-28T17:32:46.863Z,4.90
2022-09-28T17:35:25.383Z,4.80
2022-09-28T17:37:53.847Z,4.00
2022-09-28T17:40:28.767Z,3.83
2022-09-28T17:43:19.402Z,3.85
2022-09-28T17:45:47.773Z,3.60
2022-09-28T17:48:17.099Z,3.58
2022-09-28T17:50:46.718Z,4.03
2022-09-28T17:53:14.268Z,3.38
2022-09-28T17:55:43.265Z,3.95
2022-09-28T17:58:16.898Z,3.97
2022-09-28T18:00:46.038Z,3.78
2022-09-28T18:03:18.961Z,4.28
2022-09-28T18:05:48.547Z,4.63
2022-09-28T18:08:21.356Z,4.20
2022-09-28T18:10:49.882Z,5.70
2022-09-28T18:13:16.980Z,5.40
2022-09-28T18:15:44.038Z,5.25
2022-09-28T18:18:13.020Z,3.92
2022-09-28T18:20:41.457Z,4.75
2022-09-28T18:23:08.391Z,4.85
2022-09-28T18:25:38.964Z,4.13
2022-09-28T18:28:05.877Z,4.85
2022-09-28T18:30:32.807Z,4.07
2022-09-28T18:32:59.808Z,5.55
2022-09-28T18:35:26.894Z,4.07
2022-09-28T18:37:54.420Z,5.00
2022-09-28T18:40:22.279Z,5.45
2022-09-28T18:42:51.265Z,4.43
2022-09-28T18:45:19.001Z,4.78
2022-09-28T18:47:46.012Z,6.20
2022-09-28T18:50:15.376Z,5.18
2022-09-28T18:52:47.425Z,5.80
2022-09-28T18:55:14.667Z,11.05
2022-09-28T18:57:46.571Z,5.20
2022-09-28T19:00:15.379Z,5.57
2022-09-28T19:02:43.037Z,6.03
2022-09-28T19:05:10.408Z,5.93
2022-09-28T19:07:37.676Z,5.18
2022-09-28T19:10:06.519Z,5.65
2022-09-28T19:12:33.719Z,5.72
2022-09-28T19:15:00.678Z,5.35
2022-09-28T19:17:27.755Z,6.25
2022-09-28T19:19:54.865Z,5.38
2022-09-28T19:22:21.952Z,4.88
2022-09-28T19:24:48.856Z,5.00
2022-09-28T19:27:16.224Z,6.10
2022-09-28T19:29:43.375Z,5.30
2022-09-28T19:32:12.383Z,6.18
2022-09-28T19:34:39.593Z,5.50
2022-09-28T19:37:06.853Z,5.60
2022-09-28T19:39:35.016Z,5.47
2022-09-28T19:42:02.176Z,6.35
2022-09-28T19:44:31.884Z,6.43
2022-09-28T19:47:05.020Z,5.80
2022-09-28T19:49:37.135Z,10.60
2022-09-28T19:52:37.066Z,5.13
2022-09-28T19:55:04.371Z,5.60
2022-09-28T19:57:35.274Z,6.07
2022-09-28T20:00:03.781Z,6.30
2022-09-28T20:02:35.061Z,5.60
2022-09-28T20:05:02.396Z,5.88
2022-09-28T20:07:33.193Z,5.95
2022-09-28T20:10:03.887Z,5.97
2022-09-28T20:12:30.952Z,6.50
2022-09-28T20:14:58.032Z,7.13
2022-09-28T20:17:25.217Z,4.97
2022-09-28T20:19:52.366Z,5.07
2022-09-28T20:22:20.236Z,5.40
2022-09-28T20:24:47.618Z,4.88
2022-09-28T20:27:14.930Z,4.78
2022-09-28T20:29:43.175Z,4.63
2022-09-28T20:32:13.773Z,4.65
2022-09-28T20:34:40.760Z,4.97
2022-09-28T20:37:07.862Z,7.10
2022-09-28T20:39:34.993Z,5.88
2022-09-28T20:42:04.514Z,5.80
2022-09-28T20:44:33.824Z,5.85
2022-09-28T20:47:01.500Z,4.97
2022-09-28T20:49:28.476Z,7.00
2022-09-28T20:51:55.869Z,5.15
2022-09-28T20:54:23.026Z,5.70
2022-09-28T20:56:50.174Z,6.75
2022-09-28T20:59:18.010Z,5.57
2022-09-28T21:01:45.303Z,6.38
2022-09-28T21:04:12.817Z,5.70
2022-09-28T21:06:41.965Z,6.30
2022-09-28T21:09:10.960Z,6.88
2022-09-28T21:11:41.795Z,5.43
2022-09-28T21:14:10.478Z,5.65
2022-09-28T21:16:38.850Z,5.78
2022-09-28T21:19:06.274Z,5.18
2022-09-28T21:21:33.220Z,5.25
2022-09-28T21:24:00.492Z,5.43
2022-09-28T21:26:29.727Z,5.35
2022-09-28T21:29:08.091Z,7.47
2022-09-28T21:31:39.561Z,7.03
2022-09-28T21:34:07.944Z,5.70
2022-09-28T21:36:35.171Z,6.13
2022-09-28T21:39:04.963Z,37.35
2022-09-28T21:41:34.086Z,12.30
2022-09-28T21:44:01.214Z,17.33
2022-09-28T21:46:34.310Z,21.65
2022-09-28T21:49:02.019Z,22.17
2022-09-28T21:51:30.742Z,13.77
2022-09-28T21:53:58.052Z,11.15
2022-09-28T21:56:25.113Z,10.55
2022-09-28T21:58:52.392Z,11.65
2022-09-28T22:01:22.319Z,7.05
2022-09-28T22:03:58.752Z,5.93
2022-09-28T22:06:30.001Z,6.13
2022-09-28T22:08:57.649Z,6.03
2022-09-28T22:11:30.037Z,4.88
2022-09-28T22:13:59.442Z,5.47
2022-09-28T22:16:29.396Z,11.20
2022-09-28T22:18:58.280Z,6.68
2022-09-28T22:21:29.316Z,6.40
2022-09-28T22:24:01.940Z,5.82
2022-09-28T22:26:31.967Z,6.90
2022-09-28T22:29:00.862Z,6.18
2022-09-28T22:31:32.982Z,5.68
2022-09-28T22:34:03.078Z,8.98
2022-09-28T22:36:30.812Z,6.43
2022-09-28T22:38:58.766Z,10.65
2022-09-28T22:41:26.091Z,11.48
2022-09-28T22:43:53.941Z,11.13
2022-09-28T22:46:24.516Z,15.23
2022-09-28T22:48:53.899Z,7.05
2022-09-28T22:51:22.064Z,7.40
2022-09-28T22:53:49.412Z,6.32
2022-09-28T22:56:19.087Z,6.50
2022-09-28T22:58:46.741Z,7.80
2022-09-28T23:01:17.906Z,8.77
2022-09-28T23:03:45.477Z,8.07
2022-09-28T23:06:15.067Z,13.27
2022-09-28T23:08:42.602Z,7.85
2022-09-28T23:11:09.521Z,9.02
2022-09-28T23:13:37.739Z,8.80
2022-09-28T23:16:07.281Z,6.68
2022-09-28T23:18:36.706Z,6.85
2022-09-28T23:21:06.215Z,8.02
2022-09-28T23:23:34.025Z,10.68
2022-09-28T23:26:01.431Z,8.35
2022-09-28T23:28:28.493Z,9.32
2022-09-28T23:30:55.815Z,8.07
2022-09-28T23:33:22.987Z,7.95
2022-09-28T23:35:49.932Z,8.05
2022-09-28T23:38:18.352Z,10.10
2022-09-28T23:40:46.771Z,9.25
2022-09-28T23:43:14.167Z,9.88
2022-09-28T23:45:43.463Z,9.45
2022-09-28T23:48:11.090Z,8.32
2022-09-28T23:50:39.794Z,9.23
2022-09-28T23:53:27.253Z,8.70
2022-09-28T23:55:55.146Z,8.63
2022-09-28T23:58:22.653Z,8.95
